Terminal Aerodrome Forecast
Issued by NWS Pueblo, CO

Home | Current Version | Previous Version | Text Only | Print | Product List | Glossary On
Versions: 1 2 3 4 5 6 7 8 9 10 11 12 13 14 15 16 17 18 19 20 21 22 23 24 25 26 27 28 29 30 31 32 33
631
FTUS45 KPUB 202325
TAFALS
TAF
KALS 202325Z 2100/2124 25015G25KT P6SM SCT060 BKN100
     FM210300 36008KT P6SM SCT060 SCT100
     FM210700 01006KT P6SM VCSH BKN050
     FM211000 VRB04KT 3SM BR SCT002 SCT050 SCT150
     FM211500 VRB04KT P6SM FEW050
     FM211900 35009KT P6SM SCT060=

USA.gov is the U.S. government's official web portal to all federal, state and local government web resources and services.